sensor_id;sensor_type;location;lat;lon;timestamp;P1;durP1;ratioP1;P2;durP2;ratioP2
261;SDS011;114;48.260;10.988;2023-10-08T00:02:04;6.30;;;4.40;;
261;SDS011;114;48.260;10.988;2023-10-08T00:04:33;7.73;;;3.53;;
261;SDS011;114;48.260;10.988;2023-10-08T00:07:03;4.40;;;4.00;;
261;SDS011;114;48.260;10.988;2023-10-08T00:09:33;7.40;;;3.80;;
261;SDS011;114;48.260;10.988;2023-10-08T00:12:02;8.23;;;4.53;;
261;SDS011;114;48.260;10.988;2023-10-08T00:14:29;5.40;;;3.83;;
261;SDS011;114;48.260;10.988;2023-10-08T00:16:56;4.93;;;3.77;;
261;SDS011;114;48.260;10.988;2023-10-08T00:19:23;6.80;;;4.13;;
261;SDS011;114;48.260;10.988;2023-10-08T00:21:49;3.87;;;3.37;;
261;SDS011;114;48.260;10.988;2023-10-08T00:24:18;5.00;;;4.37;;
261;SDS011;114;48.260;10.988;2023-10-08T00:26:51;7.17;;;3.90;;
261;SDS011;114;48.260;10.988;2023-10-08T00:29:19;4.97;;;3.27;;
261;SDS011;114;48.260;10.988;2023-10-08T00:31:48;4.80;;;3.70;;
261;SDS011;114;48.260;10.988;2023-10-08T00:34:17;7.43;;;3.63;;
261;SDS011;114;48.260;10.988;2023-10-08T00:36:46;9.67;;;4.50;;
261;SDS011;114;48.260;10.988;2023-10-08T00:39:13;5.30;;;3.87;;
261;SDS011;114;48.260;10.988;2023-10-08T00:41:45;6.07;;;3.90;;
261;SDS011;114;48.260;10.988;2023-10-08T00:44:12;5.50;;;3.50;;
261;SDS011;114;48.260;10.988;2023-10-08T00:46:42;6.33;;;3.87;;
261;SDS011;114;48.260;10.988;2023-10-08T00:49:24;6.70;;;3.60;;
261;SDS011;114;48.260;10.988;2023-10-08T00:52:08;7.60;;;4.13;;
261;SDS011;114;48.260;10.988;2023-10-08T00:54:39;8.03;;;4.87;;
261;SDS011;114;48.260;10.988;2023-10-08T00:57:28;7.77;;;3.50;;
261;SDS011;114;48.260;10.988;2023-10-08T00:59:55;6.70;;;3.70;;
261;SDS011;114;48.260;10.988;2023-10-08T01:02:24;9.67;;;4.30;;
261;SDS011;114;48.260;10.988;2023-10-08T01:05:07;5.57;;;3.73;;
261;SDS011;114;48.260;10.988;2023-10-08T01:07:35;9.80;;;3.70;;
261;SDS011;114;48.260;10.988;2023-10-08T01:10:01;5.50;;;4.50;;
261;SDS011;114;48.260;10.988;2023-10-08T01:12:35;8.20;;;3.90;;
261;SDS011;114;48.260;10.988;2023-10-08T01:15:09;5.20;;;3.90;;
261;SDS011;114;48.260;10.988;2023-10-08T01:17:43;9.60;;;4.20;;
261;SDS011;114;48.260;10.988;2023-10-08T01:20:26;12.33;;;3.80;;
261;SDS011;114;48.260;10.988;2023-10-08T01:23:08;9.97;;;3.57;;
261;SDS011;114;48.260;10.988;2023-10-08T01:25:44;19.70;;;3.87;;
261;SDS011;114;48.260;10.988;2023-10-08T01:28:16;7.23;;;3.33;;
261;SDS011;114;48.260;10.988;2023-10-08T01:30:52;7.40;;;4.07;;
261;SDS011;114;48.260;10.988;2023-10-08T01:33:19;16.93;;;3.70;;
261;SDS011;114;48.260;10.988;2023-10-08T01:35:52;6.30;;;3.73;;
261;SDS011;114;48.260;10.988;2023-10-08T01:38:19;6.10;;;3.93;;
261;SDS011;114;48.260;10.988;2023-10-08T01:40:51;4.63;;;3.70;;
261;SDS011;114;48.260;10.988;2023-10-08T01:43:17;7.03;;;4.27;;
261;SDS011;114;48.260;10.988;2023-10-08T01:45:44;5.73;;;4.13;;
261;SDS011;114;48.260;10.988;2023-10-08T01:48:14;7.57;;;3.90;;
261;SDS011;114;48.260;10.988;2023-10-08T01:50:46;8.43;;;4.00;;
261;SDS011;114;48.260;10.988;2023-10-08T01:53:12;5.93;;;3.80;;
261;SDS011;114;48.260;10.988;2023-10-08T01:55:41;5.70;;;3.30;;
261;SDS011;114;48.260;10.988;2023-10-08T01:58:17;5.87;;;3.93;;
261;SDS011;114;48.260;10.988;2023-10-08T02:00:44;4.87;;;3.93;;
261;SDS011;114;48.260;10.988;2023-10-08T02:03:11;6.00;;;3.47;;
261;SDS011;114;48.260;10.988;2023-10-08T02:05:39;7.20;;;3.33;;
261;SDS011;114;48.260;10.988;2023-10-08T02:08:07;8.47;;;3.67;;
261;SDS011;114;48.260;10.988;2023-10-08T02:10:34;6.30;;;3.80;;
261;SDS011;114;48.260;10.988;2023-10-08T02:13:01;5.77;;;3.73;;
261;SDS011;114;48.260;10.988;2023-10-08T02:15:27;4.60;;;3.80;;
261;SDS011;114;48.260;10.988;2023-10-08T02:17:53;7.10;;;3.50;;
261;SDS011;114;48.260;10.988;2023-10-08T02:20:20;5.20;;;3.70;;
261;SDS011;114;48.260;10.988;2023-10-08T02:22:47;9.20;;;3.63;;
261;SDS011;114;48.260;10.988;2023-10-08T02:25:14;6.30;;;3.80;;
261;SDS011;114;48.260;10.988;2023-10-08T02:27:40;8.50;;;3.60;;
261;SDS011;114;48.260;10.988;2023-10-08T02:30:07;4.97;;;3.60;;
261;SDS011;114;48.260;10.988;2023-10-08T02:32:35;6.53;;;3.70;;
261;SDS011;114;48.260;10.988;2023-10-08T02:35:02;6.53;;;4.00;;
261;SDS011;114;48.260;10.988;2023-10-08T02:37:28;5.67;;;3.13;;
261;SDS011;114;48.260;10.988;2023-10-08T02:39:54;6.37;;;4.00;;
261;SDS011;114;48.260;10.988;2023-10-08T02:42:20;6.33;;;4.33;;
261;SDS011;114;48.260;10.988;2023-10-08T02:44:47;5.90;;;4.10;;
261;SDS011;114;48.260;10.988;2023-10-08T02:47:13;4.70;;;3.00;;
261;SDS011;114;48.260;10.988;2023-10-08T02:49:43;5.37;;;3.60;;
261;SDS011;114;48.260;10.988;2023-10-08T02:52:10;6.53;;;4.10;;
261;SDS011;114;48.260;10.988;2023-10-08T02:54:36;5.70;;;4.10;;
261;SDS011;114;48.260;10.988;2023-10-08T02:57:02;8.10;;;3.77;;
261;SDS011;114;48.260;10.988;2023-10-08T02:59:29;5.73;;;3.80;;
261;SDS011;114;48.260;10.988;2023-10-08T03:02:05;5.20;;;3.70;;
261;SDS011;114;48.260;10.988;2023-10-08T03:04:39;7.40;;;4.00;;
261;SDS011;114;48.260;10.988;2023-10-08T03:07:07;4.43;;;2.97;;
261;SDS011;114;48.260;10.988;2023-10-08T03:09:37;5.23;;;4.10;;
261;SDS011;114;48.260;10.988;2023-10-08T03:12:07;4.93;;;3.40;;
261;SDS011;114;48.260;10.988;2023-10-08T03:14:35;6.57;;;3.30;;
261;SDS011;114;48.260;10.988;2023-10-08T03:17:13;4.10;;;3.30;;
261;SDS011;114;48.260;10.988;2023-10-08T03:19:45;6.03;;;3.47;;
261;SDS011;114;48.260;10.988;2023-10-08T03:22:12;4.97;;;2.83;;
261;SDS011;114;48.260;10.988;2023-10-08T03:24:37;9.80;;;3.90;;
261;SDS011;114;48.260;10.988;2023-10-08T03:27:04;5.63;;;3.97;;
261;SDS011;114;48.260;10.988;2023-10-08T03:29:46;6.13;;;3.10;;
261;SDS011;114;48.260;10.988;2023-10-08T03:32:12;4.60;;;2.83;;
261;SDS011;114;48.260;10.988;2023-10-08T03:34:48;7.10;;;3.70;;
261;SDS011;114;48.260;10.988;2023-10-08T03:37:15;4.33;;;3.20;;
261;SDS011;114;48.260;10.988;2023-10-08T03:39:48;7.80;;;3.97;;
261;SDS011;114;48.260;10.988;2023-10-08T03:42:25;6.60;;;3.70;;
261;SDS011;114;48.260;10.988;2023-10-08T03:44:55;11.93;;;3.67;;
261;SDS011;114;48.260;10.988;2023-10-08T03:47:21;6.70;;;2.97;;
261;SDS011;114;48.260;10.988;2023-10-08T03:49:51;7.17;;;3.93;;
261;SDS011;114;48.260;10.988;2023-10-08T03:52:20;7.13;;;4.00;;
261;SDS011;114;48.260;10.988;2023-10-08T03:54:51;4.30;;;3.13;;
261;SDS011;114;48.260;10.988;2023-10-08T03:57:36;4.87;;;3.00;;
261;SDS011;114;48.260;10.988;2023-10-08T04:00:09;6.60;;;3.30;;
261;SDS011;114;48.260;10.988;2023-10-08T04:02:44;7.10;;;2.90;;
261;SDS011;114;48.260;10.988;2023-10-08T04:05:23;5.00;;;3.20;;
261;SDS011;114;48.260;10.988;2023-10-08T04:07:57;5.57;;;3.73;;
261;SDS011;114;48.260;10.988;2023-10-08T04:10:23;7.80;;;3.97;;
261;SDS011;114;48.260;10.988;2023-10-08T04:13:04;5.90;;;3.70;;
261;SDS011;114;48.260;10.988;2023-10-08T04:15:37;8.93;;;3.43;;
261;SDS011;114;48.260;10.988;2023-10-08T04:18:07;5.10;;;3.37;;
261;SDS011;114;48.260;10.988;2023-10-08T04:20:33;3.40;;;3.10;;
261;SDS011;114;48.260;10.988;2023-10-08T04:23:03;4.97;;;3.07;;
261;SDS011;114;48.260;10.988;2023-10-08T04:25:43;6.50;;;3.13;;
261;SDS011;114;48.260;10.988;2023-10-08T04:28:09;10.33;;;4.00;;
261;SDS011;114;48.260;10.988;2023-10-08T04:30:45;8.30;;;3.73;;
261;SDS011;114;48.260;10.988;2023-10-08T04:33:18;10.10;;;3.33;;
261;SDS011;114;48.260;10.988;2023-10-08T04:35:44;7.43;;;3.90;;
261;SDS011;114;48.260;10.988;2023-10-08T04:38:17;4.70;;;3.17;;
261;SDS011;114;48.260;10.988;2023-10-08T04:40:46;15.87;;;3.30;;
261;SDS011;114;48.260;10.988;2023-10-08T04:43:19;4.70;;;3.10;;
261;SDS011;114;48.260;10.988;2023-10-08T04:46:08;3.23;;;2.70;;
261;SDS011;114;48.260;10.988;2023-10-08T04:48:54;6.40;;;3.63;;
261;SDS011;114;48.260;10.988;2023-10-08T04:51:20;6.20;;;2.93;;
261;SDS011;114;48.260;10.988;2023-10-08T04:53:48;3.13;;;2.80;;
261;SDS011;114;48.260;10.988;2023-10-08T04:56:14;7.43;;;3.13;;
261;SDS011;114;48.260;10.988;2023-10-08T04:58:44;6.77;;;3.60;;
261;SDS011;114;48.260;10.988;2023-10-08T05:01:14;4.00;;;3.50;;
261;SDS011;114;48.260;10.988;2023-10-08T05:04:03;5.00;;;3.03;;
261;SDS011;114;48.260;10.988;2023-10-08T05:06:31;4.77;;;2.40;;
261;SDS011;114;48.260;10.988;2023-10-08T05:09:03;5.17;;;3.40;;
261;SDS011;114;48.260;10.988;2023-10-08T05:11:36;5.47;;;3.20;;
261;SDS011;114;48.260;10.988;2023-10-08T05:14:11;7.13;;;3.20;;
261;SDS011;114;48.260;10.988;2023-10-08T05:17:02;10.70;;;3.97;;
261;SDS011;114;48.260;10.988;2023-10-08T05:19:47;6.97;;;4.20;;
261;SDS011;114;48.260;10.988;2023-10-08T05:22:32;6.33;;;4.13;;
261;SDS011;114;48.260;10.988;2023-10-08T05:24:58;4.47;;;3.20;;
261;SDS011;114;48.260;10.988;2023-10-08T05:27:41;4.70;;;3.33;;
261;SDS011;114;48.260;10.988;2023-10-08T05:30:17;5.17;;;3.50;;
261;SDS011;114;48.260;10.988;2023-10-08T05:32:53;5.43;;;3.40;;
261;SDS011;114;48.260;10.988;2023-10-08T05:35:38;11.23;;;4.20;;
261;SDS011;114;48.260;10.988;2023-10-08T05:38:05;7.03;;;3.00;;
261;SDS011;114;48.260;10.988;2023-10-08T05:41:03;7.30;;;3.50;;
261;SDS011;114;48.260;10.988;2023-10-08T05:43:36;6.27;;;4.20;;
261;SDS011;114;48.260;10.988;2023-10-08T05:46:10;9.70;;;2.97;;
261;SDS011;114;48.260;10.988;2023-10-08T05:48:48;7.10;;;3.60;;
261;SDS011;114;48.260;10.988;2023-10-08T05:51:29;13.00;;;3.10;;
261;SDS011;114;48.260;10.988;2023-10-08T05:54:15;6.07;;;3.67;;
261;SDS011;114;48.260;10.988;2023-10-08T05:59:32;6.00;;;3.60;;
261;SDS011;114;48.260;10.988;2023-10-08T06:02:17;4.50;;;3.03;;
261;SDS011;114;48.260;10.988;2023-10-08T06:05:03;5.97;;;3.83;;
261;SDS011;114;48.260;10.988;2023-10-08T06:07:39;4.90;;;3.47;;
261;SDS011;114;48.260;10.988;2023-10-08T06:10:28;7.27;;;2.97;;
261;SDS011;114;48.260;10.988;2023-10-08T06:13:04;5.03;;;3.60;;
261;SDS011;114;48.260;10.988;2023-10-08T06:16:05;13.47;;;3.37;;
261;SDS011;114;48.260;10.988;2023-10-08T06:18:33;6.13;;;3.63;;
261;SDS011;114;48.260;10.988;2023-10-08T06:21:03;13.50;;;4.50;;
261;SDS011;114;48.260;10.988;2023-10-08T06:23:37;17.40;;;3.90;;
261;SDS011;114;48.260;10.988;2023-10-08T06:26:05;12.77;;;4.50;;
261;SDS011;114;48.260;10.988;2023-10-08T06:28:39;6.90;;;3.97;;
261;SDS011;114;48.260;10.988;2023-10-08T06:31:07;10.87;;;4.47;;
261;SDS011;114;48.260;10.988;2023-10-08T06:33:43;10.53;;;3.60;;
261;SDS011;114;48.260;10.988;2023-10-08T06:36:09;6.90;;;4.00;;
261;SDS011;114;48.260;10.988;2023-10-08T06:38:36;8.37;;;3.53;;
261;SDS011;114;48.260;10.988;2023-10-08T06:41:04;6.80;;;3.63;;
261;SDS011;114;48.260;10.988;2023-10-08T06:43:50;8.37;;;3.20;;
261;SDS011;114;48.260;10.988;2023-10-08T06:46:27;10.80;;;4.70;;
261;SDS011;114;48.260;10.988;2023-10-08T06:48:58;7.30;;;4.10;;
261;SDS011;114;48.260;10.988;2023-10-08T06:51:24;5.60;;;3.73;;
261;SDS011;114;48.260;10.988;2023-10-08T06:53:51;12.07;;;4.10;;
261;SDS011;114;48.260;10.988;2023-10-08T06:56:19;8.83;;;3.90;;
261;SDS011;114;48.260;10.988;2023-10-08T06:58:45;7.30;;;3.10;;
261;SDS011;114;48.260;10.988;2023-10-08T07:01:17;6.93;;;3.83;;
261;SDS011;114;48.260;10.988;2023-10-08T07:03:47;7.27;;;3.10;;
261;SDS011;114;48.260;10.988;2023-10-08T07:06:17;7.13;;;3.60;;
261;SDS011;114;48.260;10.988;2023-10-08T07:08:56;9.40;;;4.10;;
261;SDS011;114;48.260;10.988;2023-10-08T07:11:30;6.03;;;3.70;;
261;SDS011;114;48.260;10.988;2023-10-08T07:14:04;8.93;;;4.80;;
261;SDS011;114;48.260;10.988;2023-10-08T07:16:31;17.07;;;3.50;;
261;SDS011;114;48.260;10.988;2023-10-08T07:18:57;7.37;;;3.37;;
261;SDS011;114;48.260;10.988;2023-10-08T07:21:29;12.60;;;4.30;;
261;SDS011;114;48.260;10.988;2023-10-08T07:24:03;9.93;;;3.23;;
261;SDS011;114;48.260;10.988;2023-10-08T07:26:34;7.60;;;3.87;;
261;SDS011;114;48.260;10.988;2023-10-08T07:29:02;8.53;;;3.50;;
261;SDS011;114;48.260;10.988;2023-10-08T07:31:37;11.40;;;4.40;;
261;SDS011;114;48.260;10.988;2023-10-08T07:34:06;10.57;;;3.63;;
261;SDS011;114;48.260;10.988;2023-10-08T07:36:43;7.00;;;3.67;;
261;SDS011;114;48.260;10.988;2023-10-08T07:39:15;10.60;;;3.87;;
261;SDS011;114;48.260;10.988;2023-10-08T07:41:51;10.40;;;3.77;;
261;SDS011;114;48.260;10.988;2023-10-08T07:44:19;8.70;;;3.60;;
261;SDS011;114;48.260;10.988;2023-10-08T07:46:48;10.50;;;3.57;;
261;SDS011;114;48.260;10.988;2023-10-08T07:49:14;8.00;;;4.10;;
261;SDS011;114;48.260;10.988;2023-10-08T07:51:40;9.73;;;4.13;;
261;SDS011;114;48.260;10.988;2023-10-08T07:54:06;11.00;;;3.53;;
261;SDS011;114;48.260;10.988;2023-10-08T07:56:41;7.90;;;3.80;;
261;SDS011;114;48.260;10.988;2023-10-08T07:59:07;11.63;;;4.53;;
261;SDS011;114;48.260;10.988;2023-10-08T08:01:34;6.33;;;3.93;;
261;SDS011;114;48.260;10.988;2023-10-08T08:04:00;9.80;;;3.90;;
261;SDS011;114;48.260;10.988;2023-10-08T08:06:26;8.23;;;3.40;;
261;SDS011;114;48.260;10.988;2023-10-08T08:08:51;11.80;;;4.60;;
261;SDS011;114;48.260;10.988;2023-10-08T08:11:17;9.00;;;3.30;;
261;SDS011;114;48.260;10.988;2023-10-08T08:13:44;21.10;;;3.87;;
261;SDS011;114;48.260;10.988;2023-10-08T08:16:14;11.63;;;3.37;;
261;SDS011;114;48.260;10.988;2023-10-08T08:21:10;8.13;;;4.33;;
261;SDS011;114;48.260;10.988;2023-10-08T08:23:40;6.80;;;3.63;;
261;SDS011;114;48.260;10.988;2023-10-08T08:26:12;8.90;;;3.93;;
261;SDS011;114;48.260;10.988;2023-10-08T08:28:51;10.57;;;3.90;;
261;SDS011;114;48.260;10.988;2023-10-08T08:31:27;9.10;;;3.70;;
261;SDS011;114;48.260;10.988;2023-10-08T08:33:56;13.40;;;4.13;;
261;SDS011;114;48.260;10.988;2023-10-08T08:36:28;9.63;;;3.70;;
261;SDS011;114;48.260;10.988;2023-10-08T08:38:55;22.53;;;3.63;;
261;SDS011;114;48.260;10.988;2023-10-08T08:41:21;11.10;;;3.50;;
261;SDS011;114;48.260;10.988;2023-10-08T08:43:49;14.50;;;3.53;;
261;SDS011;114;48.260;10.988;2023-10-08T08:46:26;10.50;;;3.80;;
261;SDS011;114;48.260;10.988;2023-10-08T08:48:55;12.63;;;3.60;;
261;SDS011;114;48.260;10.988;2023-10-08T08:51:22;19.03;;;5.03;;
261;SDS011;114;48.260;10.988;2023-10-08T08:53:48;10.80;;;4.20;;
261;SDS011;114;48.260;10.988;2023-10-08T08:56:16;11.97;;;4.40;;
261;SDS011;114;48.260;10.988;2023-10-08T08:58:42;12.17;;;3.70;;
261;SDS011;114;48.260;10.988;2023-10-08T09:01:11;19.90;;;4.30;;
261;SDS011;114;48.260;10.988;2023-10-08T09:03:39;11.67;;;3.70;;
261;SDS011;114;48.260;10.988;2023-10-08T09:06:05;11.03;;;3.77;;
261;SDS011;114;48.260;10.988;2023-10-08T09:08:34;22.70;;;4.10;;
261;SDS011;114;48.260;10.988;2023-10-08T09:11:03;10.50;;;3.30;;
261;SDS011;114;48.260;10.988;2023-10-08T09:13:33;15.17;;;3.93;;
261;SDS011;114;48.260;10.988;2023-10-08T09:16:03;14.43;;;4.70;;
261;SDS011;114;48.260;10.988;2023-10-08T09:18:32;12.97;;;3.67;;
261;SDS011;114;48.260;10.988;2023-10-08T09:21:06;9.00;;;4.23;;
261;SDS011;114;48.260;10.988;2023-10-08T09:23:40;14.93;;;4.00;;
261;SDS011;114;48.260;10.988;2023-10-08T09:26:12;13.40;;;3.70;;
261;SDS011;114;48.260;10.988;2023-10-08T09:28:44;21.07;;;3.67;;
261;SDS011;114;48.260;10.988;2023-10-08T09:31:11;12.23;;;4.00;;
261;SDS011;114;48.260;10.988;2023-10-08T09:33:39;19.00;;;4.03;;
261;SDS011;114;48.260;10.988;2023-10-08T09:36:06;18.53;;;3.77;;
261;SDS011;114;48.260;10.988;2023-10-08T09:38:36;11.50;;;4.10;;
261;SDS011;114;48.260;10.988;2023-10-08T09:41:02;10.90;;;3.20;;
261;SDS011;114;48.260;10.988;2023-10-08T09:43:29;18.10;;;4.47;;
261;SDS011;114;48.260;10.988;2023-10-08T09:46:00;14.17;;;3.40;;
261;SDS011;114;48.260;10.988;2023-10-08T09:48:41;15.87;;;4.20;;
261;SDS011;114;48.260;10.988;2023-10-08T09:51:10;21.73;;;5.50;;
261;SDS011;114;48.260;10.988;2023-10-08T09:56:15;12.93;;;4.03;;
261;SDS011;114;48.260;10.988;2023-10-08T09:58:42;8.87;;;4.20;;
261;SDS011;114;48.260;10.988;2023-10-08T10:01:09;13.90;;;5.03;;
261;SDS011;114;48.260;10.988;2023-10-08T10:03:36;11.77;;;4.20;;
261;SDS011;114;48.260;10.988;2023-10-08T10:06:02;5.93;;;3.27;;
261;SDS011;114;48.260;10.988;2023-10-08T10:08:30;28.03;;;4.10;;
261;SDS011;114;48.260;10.988;2023-10-08T10:11:00;5.93;;;3.43;;
261;SDS011;114;48.260;10.988;2023-10-08T10:13:43;10.63;;;4.27;;
261;SDS011;114;48.260;10.988;2023-10-08T10:16:13;11.47;;;4.20;;
261;SDS011;114;48.260;10.988;2023-10-08T10:18:46;28.20;;;5.67;;
261;SDS011;114;48.260;10.988;2023-10-08T10:23:44;16.40;;;4.00;;
261;SDS011;114;48.260;10.988;2023-10-08T10:26:30;17.27;;;4.97;;
261;SDS011;114;48.260;10.988;2023-10-08T10:29:39;14.70;;;4.40;;
261;SDS011;114;48.260;10.988;2023-10-08T10:31:47;17.63;;;4.10;;
261;SDS011;114;48.260;10.988;2023-10-08T10:34:18;24.30;;;4.40;;
261;SDS011;114;48.260;10.988;2023-10-08T10:36:53;12.13;;;4.07;;
261;SDS011;114;48.260;10.988;2023-10-08T10:39:22;20.07;;;5.20;;
261;SDS011;114;48.260;10.988;2023-10-08T10:41:51;13.77;;;3.70;;
261;SDS011;114;48.260;10.988;2023-10-08T10:44:29;12.37;;;4.10;;
261;SDS011;114;48.260;10.988;2023-10-08T10:46:56;18.10;;;4.20;;
261;SDS011;114;48.260;10.988;2023-10-08T10:49:44;12.57;;;3.30;;
261;SDS011;114;48.260;10.988;2023-10-08T10:52:41;18.77;;;3.50;;
261;SDS011;114;48.260;10.988;2023-10-08T10:55:15;11.90;;;3.83;;
261;SDS011;114;48.260;10.988;2023-10-08T10:57:54;18.83;;;3.33;;
261;SDS011;114;48.260;10.988;2023-10-08T11:00:24;11.40;;;3.23;;
261;SDS011;114;48.260;10.988;2023-10-08T11:03:13;13.57;;;3.97;;
261;SDS011;114;48.260;10.988;2023-10-08T11:05:46;15.93;;;4.53;;
261;SDS011;114;48.260;10.988;2023-10-08T11:08:16;14.80;;;4.60;;
261;SDS011;114;48.260;10.988;2023-10-08T11:10:48;18.57;;;4.73;;
261;SDS011;114;48.260;10.988;2023-10-08T11:13:24;13.70;;;5.23;;
261;SDS011;114;48.260;10.988;2023-10-08T11:16:03;13.90;;;4.27;;
261;SDS011;114;48.260;10.988;2023-10-08T11:18:30;10.27;;;4.30;;
261;SDS011;114;48.260;10.988;2023-10-08T11:21:07;12.17;;;4.27;;
261;SDS011;114;48.260;10.988;2023-10-08T11:23:49;20.07;;;4.87;;
261;SDS011;114;48.260;10.988;2023-10-08T11:26:20;19.43;;;5.13;;
261;SDS011;114;48.260;10.988;2023-10-08T11:29:00;18.57;;;4.60;;
261;SDS011;114;48.260;10.988;2023-10-08T11:31:28;18.53;;;4.20;;
261;SDS011;114;48.260;10.988;2023-10-08T11:34:03;16.43;;;4.30;;
261;SDS011;114;48.260;10.988;2023-10-08T11:36:38;13.07;;;3.83;;
261;SDS011;114;48.260;10.988;2023-10-08T11:39:18;16.80;;;3.43;;
261;SDS011;114;48.260;10.988;2023-10-08T11:42:02;9.33;;;3.43;;
261;SDS011;114;48.260;10.988;2023-10-08T11:44:32;13.80;;;4.10;;
261;SDS011;114;48.260;10.988;2023-10-08T11:47:01;9.73;;;4.10;;
261;SDS011;114;48.260;10.988;2023-10-08T11:49:38;20.97;;;4.30;;
261;SDS011;114;48.260;10.988;2023-10-08T11:52:12;10.60;;;3.80;;
261;SDS011;114;48.260;10.988;2023-10-08T11:54:40;17.60;;;5.70;;
261;SDS011;114;48.260;10.988;2023-10-08T11:57:07;13.87;;;5.30;;
261;SDS011;114;48.260;10.988;2023-10-08T11:59:34;22.93;;;5.20;;
261;SDS011;114;48.260;10.988;2023-10-08T12:02:05;14.70;;;5.10;;
261;SDS011;114;48.260;10.988;2023-10-08T12:04:31;11.60;;;4.37;;
261;SDS011;114;48.260;10.988;2023-10-08T12:06:57;12.87;;;3.90;;
261;SDS011;114;48.260;10.988;2023-10-08T12:09:27;17.77;;;4.63;;
261;SDS011;114;48.260;10.988;2023-10-08T12:11:53;14.47;;;4.03;;
261;SDS011;114;48.260;10.988;2023-10-08T12:14:20;10.93;;;3.90;;
261;SDS011;114;48.260;10.988;2023-10-08T12:16:46;18.70;;;4.23;;
261;SDS011;114;48.260;10.988;2023-10-08T12:19:11;13.70;;;3.70;;
261;SDS011;114;48.260;10.988;2023-10-08T12:21:44;8.50;;;3.67;;
261;SDS011;114;48.260;10.988;2023-10-08T12:24:14;12.20;;;4.00;;
261;SDS011;114;48.260;10.988;2023-10-08T12:26:40;28.43;;;4.13;;
261;SDS011;114;48.260;10.988;2023-10-08T12:29:12;23.03;;;4.70;;
261;SDS011;114;48.260;10.988;2023-10-08T12:31:44;10.70;;;4.53;;
261;SDS011;114;48.260;10.988;2023-10-08T12:34:15;14.90;;;4.93;;
261;SDS011;114;48.260;10.988;2023-10-08T12:36:42;16.03;;;3.80;;
261;SDS011;114;48.260;10.988;2023-10-08T12:39:07;12.37;;;3.53;;
261;SDS011;114;48.260;10.988;2023-10-08T12:41:39;19.13;;;4.03;;
261;SDS011;114;48.260;10.988;2023-10-08T12:44:09;8.27;;;2.87;;
261;SDS011;114;48.260;10.988;2023-10-08T12:46:40;23.10;;;4.27;;
261;SDS011;114;48.260;10.988;2023-10-08T12:49:08;19.13;;;4.27;;
261;SDS011;114;48.260;10.988;2023-10-08T12:51:34;17.73;;;4.43;;
261;SDS011;114;48.260;10.988;2023-10-08T12:54:01;20.37;;;4.10;;
261;SDS011;114;48.260;10.988;2023-10-08T12:56:37;21.83;;;3.60;;
261;SDS011;114;48.260;10.988;2023-10-08T12:59:15;17.20;;;4.07;;
261;SDS011;114;48.260;10.988;2023-10-08T13:01:48;7.90;;;3.77;;
261;SDS011;114;48.260;10.988;2023-10-08T13:04:19;17.40;;;4.93;;
261;SDS011;114;48.260;10.988;2023-10-08T13:06:59;10.83;;;3.57;;
261;SDS011;114;48.260;10.988;2023-10-08T13:09:26;12.80;;;4.10;;
261;SDS011;114;48.260;10.988;2023-10-08T13:11:52;19.13;;;4.67;;
261;SDS011;114;48.260;10.988;2023-10-08T13:14:20;13.20;;;3.57;;
261;SDS011;114;48.260;10.988;2023-10-08T13:16:48;7.33;;;3.20;;
261;SDS011;114;48.260;10.988;2023-10-08T13:19:18;16.40;;;4.10;;
261;SDS011;114;48.260;10.988;2023-10-08T13:21:44;27.70;;;4.67;;
261;SDS011;114;48.260;10.988;2023-10-08T13:24:10;17.13;;;4.43;;
261;SDS011;114;48.260;10.988;2023-10-08T13:26:36;22.33;;;5.10;;
261;SDS011;114;48.260;10.988;2023-10-08T13:29:03;23.00;;;4.70;;
261;SDS011;114;48.260;10.988;2023-10-08T13:31:30;11.93;;;4.10;;
261;SDS011;114;48.260;10.988;2023-10-08T13:34:01;19.07;;;4.30;;
261;SDS011;114;48.260;10.988;2023-10-08T13:36:29;19.90;;;5.90;;
261;SDS011;114;48.260;10.988;2023-10-08T13:38:56;25.53;;;4.70;;
261;SDS011;114;48.260;10.988;2023-10-08T13:41:21;19.20;;;4.27;;
261;SDS011;114;48.260;10.988;2023-10-08T13:43:48;18.10;;;4.57;;
261;SDS011;114;48.260;10.988;2023-10-08T13:46:17;17.13;;;4.07;;
261;SDS011;114;48.260;10.988;2023-10-08T13:48:48;10.77;;;3.90;;
261;SDS011;114;48.260;10.988;2023-10-08T13:51:15;29.20;;;5.40;;
261;SDS011;114;48.260;10.988;2023-10-08T13:53:51;16.33;;;4.23;;
261;SDS011;114;48.260;10.988;2023-10-08T13:56:18;18.93;;;3.93;;
261;SDS011;114;48.260;10.988;2023-10-08T13:58:55;20.13;;;4.00;;
261;SDS011;114;48.260;10.988;2023-10-08T14:01:42;12.50;;;3.70;;
261;SDS011;114;48.260;10.988;2023-10-08T14:04:11;12.17;;;4.83;;
261;SDS011;114;48.260;10.988;2023-10-08T14:06:42;14.70;;;4.03;;
261;SDS011;114;48.260;10.988;2023-10-08T14:09:13;12.73;;;4.23;;
261;SDS011;114;48.260;10.988;2023-10-08T14:11:45;13.07;;;4.80;;
261;SDS011;114;48.260;10.988;2023-10-08T14:14:11;15.20;;;4.20;;
261;SDS011;114;48.260;10.988;2023-10-08T14:16:40;11.20;;;3.93;;
261;SDS011;114;48.260;10.988;2023-10-08T14:19:12;19.87;;;3.83;;
261;SDS011;114;48.260;10.988;2023-10-08T14:21:40;9.83;;;3.83;;
261;SDS011;114;48.260;10.988;2023-10-08T14:24:30;11.90;;;5.43;;
261;SDS011;114;48.260;10.988;2023-10-08T14:27:00;13.33;;;4.97;;
261;SDS011;114;48.260;10.988;2023-10-08T14:29:34;25.80;;;4.60;;
261;SDS011;114;48.260;10.988;2023-10-08T14:32:05;22.57;;;3.93;;
261;SDS011;114;48.260;10.988;2023-10-08T14:34:34;19.30;;;4.90;;
261;SDS011;114;48.260;10.988;2023-10-08T14:37:13;19.57;;;7.10;;
261;SDS011;114;48.260;10.988;2023-10-08T14:39:57;46.03;;;24.77;;
261;SDS011;114;48.260;10.988;2023-10-08T14:42:41;27.57;;;7.23;;
261;SDS011;114;48.260;10.988;2023-10-08T14:45:32;15.27;;;5.90;;
261;SDS011;114;48.260;10.988;2023-10-08T14:48:06;24.53;;;6.50;;
261;SDS011;114;48.260;10.988;2023-10-08T14:50:36;26.30;;;6.47;;
261;SDS011;114;48.260;10.988;2023-10-08T14:53:03;22.73;;;9.20;;
261;SDS011;114;48.260;10.988;2023-10-08T14:55:31;27.57;;;6.57;;
261;SDS011;114;48.260;10.988;2023-10-08T14:58:01;19.40;;;8.00;;
261;SDS011;114;48.260;10.988;2023-10-08T15:00:32;17.93;;;7.17;;
261;SDS011;114;48.260;10.988;2023-10-08T15:03:01;14.57;;;6.23;;
261;SDS011;114;48.260;10.988;2023-10-08T15:05:30;22.87;;;7.93;;
261;SDS011;114;48.260;10.988;2023-10-08T15:07:57;15.63;;;5.53;;
261;SDS011;114;48.260;10.988;2023-10-08T15:10:23;23.60;;;5.10;;
261;SDS011;114;48.260;10.988;2023-10-08T15:12:49;21.73;;;7.20;;
261;SDS011;114;48.260;10.988;2023-10-08T15:15:17;22.40;;;5.90;;
261;SDS011;114;48.260;10.988;2023-10-08T15:17:47;18.77;;;4.40;;
261;SDS011;114;48.260;10.988;2023-10-08T15:20:14;16.17;;;5.70;;
261;SDS011;114;48.260;10.988;2023-10-08T15:22:46;24.33;;;5.87;;
261;SDS011;114;48.260;10.988;2023-10-08T15:25:14;26.73;;;6.23;;
261;SDS011;114;48.260;10.988;2023-10-08T15:27:44;22.23;;;5.70;;
261;SDS011;114;48.260;10.988;2023-10-08T15:30:15;24.33;;;6.47;;
261;SDS011;114;48.260;10.988;2023-10-08T15:32:43;23.07;;;6.50;;
261;SDS011;114;48.260;10.988;2023-10-08T15:35:11;13.33;;;5.50;;
261;SDS011;114;48.260;10.988;2023-10-08T15:37:45;20.00;;;5.60;;
261;SDS011;114;48.260;10.988;2023-10-08T15:40:12;20.70;;;4.70;;
261;SDS011;114;48.260;10.988;2023-10-08T15:42:48;21.37;;;7.10;;
261;SDS011;114;48.260;10.988;2023-10-08T15:45:21;12.03;;;5.00;;
261;SDS011;114;48.260;10.988;2023-10-08T15:47:49;12.00;;;5.17;;
261;SDS011;114;48.260;10.988;2023-10-08T15:50:16;25.57;;;5.10;;
261;SDS011;114;48.260;10.988;2023-10-08T15:52:45;15.80;;;5.40;;
261;SDS011;114;48.260;10.988;2023-10-08T15:55:13;7.00;;;4.33;;
261;SDS011;114;48.260;10.988;2023-10-08T15:57:38;18.60;;;5.83;;
261;SDS011;114;48.260;10.988;2023-10-08T16:00:06;30.43;;;5.23;;